Time;durP1;ratioP1;P1;durP2;ratioP2;P2;SDS_P1;SDS_P2;PMS_P1;PMS_P2;Temp;Humidity;BMP_temperature;BMP_pressure;BME280_temperature;BME280_humidity;BME280_pressure;Samples;Min_cycle;Max_cycle;Signal;HPM_P1;HPM_P2
2022/07/26 00:01:23;;;;;;;24.85;3.85;;;18.00;99.90;;;;;;4737449;30;20138;-93
2022/07/26 00:03:51;;;;;;;24.88;3.33;;;18.00;99.90;;;;;;4738633;30;20048;-94
2022/07/26 00:06:17;;;;;;;18.88;3.13;;;18.00;99.90;;;;;;4737587;30;20102;-92
2022/07/26 00:08:43;;;;;;;17.60;3.20;;;18.10;99.90;;;;;;4738058;30;20083;-93
2022/07/26 00:11:09;;;;;;;19.15;3.10;;;18.10;99.90;;;;;;4752532;30;20086;-94
2022/07/26 00:13:34;;;;;;;20.73;3.53;;;18.10;99.90;;;;;;4737716;30;20083;-94
2022/07/26 00:16:01;;;;;;;17.00;3.08;;;18.20;99.90;;;;;;4752962;30;20461;-94
2022/07/26 00:18:27;;;;;;;15.85;3.00;;;18.20;99.90;;;;;;4752158;30;20059;-94
2022/07/26 00:20:53;;;;;;;17.92;2.80;;;18.20;99.90;;;;;;4737885;30;20055;-94
2022/07/26 00:23:20;;;;;;;18.00;2.72;;;18.20;99.90;;;;;;4737794;30;20549;-94
2022/07/26 00:25:46;;;;;;;17.98;3.45;;;18.30;99.90;;;;;;4737603;30;20136;-95
2022/07/26 00:28:12;;;;;;;16.40;2.78;;;18.20;99.90;;;;;;4737863;30;20048;-94
2022/07/26 00:30:38;;;;;;;19.75;2.60;;;18.20;99.90;;;;;;4752261;30;20044;-95
2022/07/26 00:33:05;;;;;;;18.77;3.85;;;18.20;99.90;;;;;;4737445;30;20123;-94
2022/07/26 00:35:31;;;;;;;16.75;2.95;;;18.20;99.90;;;;;;4760619;30;20047;-95
2022/07/26 00:37:57;;;;;;;17.30;2.47;;;18.20;99.90;;;;;;4770045;30;20062;-94
2022/07/26 00:40:22;;;;;;;19.42;2.97;;;18.20;99.90;;;;;;4770039;30;20059;-93
2022/07/26 00:42:48;;;;;;;21.10;3.38;;;18.20;99.90;;;;;;4769734;30;20056;-94
2022/07/26 00:45:15;;;;;;;18.48;2.88;;;18.20;99.90;;;;;;4769828;30;20366;-93
2022/07/26 00:47:41;;;;;;;16.88;3.38;;;18.10;99.90;;;;;;4769702;30;20081;-94
2022/07/26 00:50:10;;;;;;;13.50;2.42;;;18.10;99.90;;;;;;4769902;30;20043;-94
2022/07/26 00:52:36;;;;;;;13.00;2.40;;;18.10;99.90;;;;;;4769843;30;20178;-94
2022/07/26 00:55:03;;;;;;;18.48;2.72;;;18.00;99.90;;;;;;4769237;30;20058;-95
2022/07/26 00:57:29;;;;;;;13.35;2.78;;;18.00;99.90;;;;;;4769671;30;20055;-95
2022/07/26 00:59:55;;;;;;;13.18;2.42;;;17.90;99.90;;;;;;4769706;30;20047;-95
2022/07/26 01:02:21;;;;;;;19.85;3.65;;;17.90;99.90;;;;;;4769127;30;20063;-94
2022/07/26 01:04:47;;;;;;;17.95;2.92;;;17.90;99.90;;;;;;4770291;30;20416;-94
2022/07/26 01:07:13;;;;;;;16.40;3.00;;;17.90;99.90;;;;;;4769210;30;20055;-93
2022/07/26 01:09:40;;;;;;;12.07;2.67;;;18.00;99.90;;;;;;4769563;30;20782;-92
2022/07/26 01:12:06;;;;;;;20.70;3.05;;;17.90;99.90;;;;;;4769146;30;20061;-94
2022/07/26 01:14:32;;;;;;;14.93;3.45;;;17.90;99.90;;;;;;4769686;30;20103;-93
2022/07/26 01:16:57;;;;;;;15.63;2.35;;;17.90;99.90;;;;;;4769615;30;20051;-94
2022/07/26 01:19:23;;;;;;;15.63;2.55;;;17.90;99.90;;;;;;4769186;30;20091;-93
2022/07/26 01:21:50;;;;;;;13.60;2.40;;;17.90;99.90;;;;;;4769645;30;20047;-94
2022/07/26 01:24:17;;;;;;;15.98;3.03;;;17.90;99.90;;;;;;4766179;30;20051;-93
2022/07/26 01:26:43;;;;;;;15.32;2.65;;;17.90;99.90;;;;;;4781533;30;20043;-93
2022/07/26 01:29:09;;;;;;;13.93;2.08;;;17.90;99.90;;;;;;4751591;30;20040;-93
2022/07/26 01:31:35;;;;;;;13.60;2.75;;;17.90;99.90;;;;;;4751571;30;20056;-94
2022/07/26 01:34:01;;;;;;;16.75;3.22;;;17.90;99.90;;;;;;4751613;30;20556;-93
2022/07/26 01:36:27;;;;;;;11.82;2.50;;;18.00;99.90;;;;;;4780547;30;20089;-93
2022/07/26 01:38:53;;;;;;;17.10;2.80;;;18.00;99.90;;;;;;4751563;30;20484;-93
2022/07/26 01:41:19;;;;;;;10.32;2.42;;;18.00;99.90;;;;;;4780953;30;20114;-93
2022/07/26 01:43:45;;;;;;;11.98;2.90;;;18.00;99.90;;;;;;4781604;30;20135;-93
2022/07/26 01:46:12;;;;;;;12.48;2.35;;;18.00;99.90;;;;;;4751475;30;20530;-94
2022/07/26 01:48:38;;;;;;;17.90;2.63;;;18.00;99.90;;;;;;4751367;30;20056;-93
2022/07/26 01:51:04;;;;;;;11.73;2.13;;;18.00;99.90;;;;;;4751294;30;20047;-94
2022/07/26 01:53:29;;;;;;;11.00;2.50;;;18.00;99.90;;;;;;4751543;30;20072;-94
2022/07/26 01:55:55;;;;;;;13.55;2.83;;;18.00;99.90;;;;;;4750524;30;20089;-93
2022/07/26 01:58:21;;;;;;;13.57;2.30;;;18.00;99.90;;;;;;4751240;30;20063;-93
2022/07/26 02:00:48;;;;;;;9.38;1.90;;;18.00;99.90;;;;;;4754724;30;20071;-94
2022/07/26 02:03:13;;;;;;;10.23;2.58;;;18.00;99.90;;;;;;4784371;30;20091;-94
2022/07/26 02:05:39;;;;;;;13.07;2.67;;;18.00;99.90;;;;;;4784566;30;20113;-94
2022/07/26 02:08:05;;;;;;;14.68;2.50;;;18.00;99.90;;;;;;4754714;30;20174;-94
2022/07/26 02:13:16;;;;;;;11.45;2.38;;;18.00;99.90;;;;;;4756814;30;20147;-93
2022/07/26 02:15:41;;;;;;;10.43;2.15;;;17.90;99.90;;;;;;4772011;30;20075;-94
2022/07/26 02:18:07;;;;;;;11.15;2.13;;;17.90;99.90;;;;;;4772035;30;20147;-95
2022/07/26 02:20:33;;;;;;;15.27;2.22;;;17.90;99.90;;;;;;4771985;30;20051;-95
2022/07/26 02:23:00;;;;;;;6.75;1.65;;;17.90;99.90;;;;;;4772519;30;20066;-94
2022/07/26 02:25:26;;;;;;;10.98;2.35;;;17.90;99.90;;;;;;4771723;30;20202;-92
2022/07/26 02:28:45;;;;;;;;;;;;;;;;;;;;;
2022/07/26 02:35:20;;;;;;;8.50;1.70;;;17.80;99.90;;;;;;4782688;30;20092;-91
2022/07/26 02:38:01;;;;;;;10.95;2.63;;;17.70;99.90;;;;;;4770951;30;20098;-93
2022/07/26 02:40:38;;;;;;;11.43;2.20;;;17.50;99.90;;;;;;4772099;30;20085;-94
2022/07/26 02:43:08;;;;;;;9.50;2.45;;;17.50;99.90;;;;;;4771555;30;20090;-93
2022/07/26 02:45:37;;;;;;;11.00;2.17;;;17.40;99.90;;;;;;4772105;30;20062;-94
2022/07/26 02:48:04;;;;;;;15.52;2.83;;;17.30;99.90;;;;;;4771466;30;20612;-92
2022/07/26 02:50:33;;;;;;;12.18;2.10;;;17.30;99.90;;;;;;4771578;30;20091;-93
2022/07/26 02:52:58;;;;;;;12.82;2.60;;;17.20;99.90;;;;;;4771825;30;20058;-93
2022/07/26 02:55:25;;;;;;;14.20;2.70;;;17.20;99.90;;;;;;4771231;30;20130;-94
2022/07/26 02:57:51;;;;;;;13.07;2.38;;;17.10;99.90;;;;;;4771513;30;20059;-93
2022/07/26 03:00:26;;;;;;;12.30;2.22;;;17.10;99.90;;;;;;4771617;30;20143;-92
2022/07/26 03:02:52;;;;;;;16.48;2.78;;;17.00;99.90;;;;;;4771800;30;20069;-91
2022/07/26 03:05:19;;;;;;;8.90;2.10;;;17.00;99.90;;;;;;4771586;30;20434;-93
2022/07/26 03:07:45;;;;;;;15.70;1.92;;;17.00;99.90;;;;;;4771367;30;20112;-91
2022/07/26 03:10:11;;;;;;;15.77;2.53;;;16.90;99.90;;;;;;4770895;30;20051;-91
2022/07/26 03:12:48;;;;;;;11.38;2.10;;;16.90;99.90;;;;;;4756688;30;20393;-91
2022/07/26 03:15:13;;;;;;;13.60;2.33;;;16.90;99.90;;;;;;4771203;30;20495;-92
2022/07/26 03:17:39;;;;;;;13.77;2.00;;;16.90;99.90;;;;;;4771144;30;20052;-92
2022/07/26 03:20:09;;;;;;;10.50;1.83;;;16.90;99.90;;;;;;4771606;30;20048;-93
2022/07/26 03:22:37;;;;;;;15.50;2.33;;;16.80;99.90;;;;;;4771029;30;20055;-92
2022/07/26 03:25:03;;;;;;;14.13;1.85;;;16.90;99.90;;;;;;4768714;30;20222;-92
2022/07/26 03:27:29;;;;;;;15.15;1.92;;;16.90;99.90;;;;;;4753584;30;20058;-92
2022/07/26 03:29:54;;;;;;;16.30;2.10;;;16.90;99.90;;;;;;4753725;30;20051;-92
2022/07/26 03:32:21;;;;;;;17.98;1.98;;;16.90;99.90;;;;;;4753359;30;20142;-92
2022/07/26 03:34:49;;;;;;;16.30;2.20;;;16.90;99.90;;;;;;4753498;30;20059;-92
2022/07/26 03:37:15;;;;;;;8.35;1.55;;;16.90;99.90;;;;;;4753182;30;20439;-92
2022/07/26 03:39:41;;;;;;;12.60;1.45;;;16.90;99.90;;;;;;4752941;30;20438;-91
2022/07/26 03:42:07;;;;;;;13.68;1.45;;;16.90;99.90;;;;;;4753479;30;20058;-92
2022/07/26 03:44:33;;;;;;;10.35;1.40;;;16.90;99.90;;;;;;4753159;30;20138;-92
2022/07/26 03:46:58;;;;;;;12.05;1.27;;;16.90;99.90;;;;;;4752744;30;20113;-91
2022/07/26 03:49:30;;;;;;;10.32;1.33;;;16.80;99.90;;;;;;4754467;30;20068;-91
2022/07/26 03:51:58;;;;;;;8.95;1.73;;;16.80;99.90;;;;;;4752872;30;20161;-90
2022/07/26 03:54:24;;;;;;;13.98;1.73;;;16.80;99.90;;;;;;4753385;30;20156;-91
2022/07/26 03:56:50;;;;;;;8.27;1.30;;;16.80;99.90;;;;;;4752631;30;20515;-90
2022/07/26 03:59:17;;;;;;;13.20;1.40;;;16.80;99.90;;;;;;4768280;30;20055;-90
2022/07/26 04:01:44;;;;;;;9.50;1.27;;;16.80;99.90;;;;;;4752468;30;20051;-90
2022/07/26 04:04:11;;;;;;;8.27;1.48;;;16.70;99.90;;;;;;4753034;30;20118;-90
2022/07/26 04:06:40;;;;;;;9.85;1.15;;;16.70;99.90;;;;;;4752741;30;20287;-91
2022/07/26 04:09:06;;;;;;;11.18;1.35;;;16.70;99.90;;;;;;4752691;30;20055;-89
2022/07/26 04:11:33;;;;;;;10.02;1.05;;;16.70;99.90;;;;;;4752877;30;20051;-90
2022/07/26 04:13:59;;;;;;;12.23;1.13;;;16.70;99.90;;;;;;4756179;30;20050;-89
2022/07/26 04:16:28;;;;;;;6.75;1.00;;;16.70;99.90;;;;;;4752109;30;20134;-89
2022/07/26 04:18:54;;;;;;;5.43;0.95;;;16.70;99.90;;;;;;4752245;30;20519;-89
2022/07/26 04:21:20;;;;;;;12.05;1.20;;;16.70;99.90;;;;;;4756753;29;20085;-90
2022/07/26 04:23:46;;;;;;;6.88;1.15;;;16.70;99.90;;;;;;4745245;30;20138;-90
2022/07/26 04:26:13;;;;;;;6.35;1.20;;;16.70;99.90;;;;;;4759558;30;20134;-90
2022/07/26 04:28:40;;;;;;;6.18;0.90;;;16.70;99.90;;;;;;4752311;30;20075;-90
2022/07/26 04:31:17;;;;;;;8.27;1.02;;;16.70;99.90;;;;;;4781768;30;20514;-90
2022/07/26 04:33:43;;;;;;;8.25;1.08;;;16.70;99.90;;;;;;4752139;30;20052;-89
2022/07/26 04:36:09;;;;;;;9.00;1.20;;;16.70;99.90;;;;;;4751930;30;20568;-89
2022/07/26 04:38:35;;;;;;;6.82;0.70;;;16.70;99.90;;;;;;4781673;30;20047;-88
2022/07/26 04:41:00;;;;;;;12.43;1.10;;;16.60;99.90;;;;;;4752132;30;20074;-89
2022/07/26 04:43:26;;;;;;;5.13;0.90;;;16.70;99.90;;;;;;4752184;30;20056;-89
2022/07/26 04:45:52;;;;;;;6.60;0.77;;;16.60;99.90;;;;;;4752214;30;20135;-89
2022/07/26 04:48:18;;;;;;;8.15;1.15;;;16.70;99.90;;;;;;4752461;30;20138;-89
2022/07/26 04:50:44;;;;;;;6.40;0.90;;;16.60;99.90;;;;;;4751767;30;20094;-90
2022/07/26 04:53:10;;;;;;;7.32;0.98;;;16.60;99.90;;;;;;4751764;30;20062;-89
2022/07/26 04:55:36;;;;;;;10.32;1.33;;;16.60;99.90;;;;;;4751512;30;20070;-89
2022/07/26 04:58:03;;;;;;;6.82;0.88;;;16.60;99.90;;;;;;4781867;30;20055;-89
2022/07/26 05:00:46;;;;;;;10.80;1.50;;;16.60;99.90;;;;;;4767006;30;20044;-89
2022/07/26 05:03:12;;;;;;;5.47;0.85;;;16.60;99.90;;;;;;4751754;30;20067;-88
2022/07/26 05:05:38;;;;;;;7.90;1.27;;;16.60;99.90;;;;;;4751798;30;20047;-88
2022/07/26 05:08:04;;;;;;;7.97;0.93;;;16.70;99.90;;;;;;4781750;30;20404;-90
2022/07/26 05:10:34;;;;;;;8.23;0.85;;;16.70;99.90;;;;;;4751714;30;20109;-90
2022/07/26 05:13:02;;;;;;;8.13;1.45;;;16.80;99.90;;;;;;4782001;30;20058;-89
2022/07/26 05:15:35;;;;;;;5.38;0.98;;;16.80;99.90;;;;;;4784311;30;20047;-90
2022/07/26 05:18:04;;;;;;;;;;;16.80;99.90;;;;;;4770203;30;20058;-89
2022/07/26 05:20:30;;;;;;;7.97;0.73;;;16.80;99.90;;;;;;4768489;30;20004;-89
2022/07/26 05:22:57;;;;;;;3.83;0.73;;;16.80;99.90;;;;;;4767890;30;20142;-90
2022/07/26 05:25:23;;;;;;;7.38;0.77;;;16.80;99.90;;;;;;4769168;30;20055;-89
2022/07/26 05:27:48;;;;;;;7.18;0.80;;;16.80;99.90;;;;;;4769779;30;20115;-90
2022/07/26 05:30:14;;;;;;;6.20;0.73;;;16.80;99.90;;;;;;4768829;30;20138;-88
2022/07/26 05:32:40;;;;;;;5.20;0.77;;;16.80;99.90;;;;;;4758159;30;20055;-89
2022/07/26 05:35:07;;;;;;;7.60;0.95;;;16.80;99.90;;;;;;4761181;30;20108;-90
2022/07/26 05:37:33;;;;;;;8.27;1.20;;;16.70;99.90;;;;;;4749343;30;20043;-89
2022/07/26 05:39:59;;;;;;;7.03;0.73;;;16.60;99.90;;;;;;4760427;30;20414;-90
2022/07/26 05:42:25;;;;;;;5.53;0.98;;;16.60;99.90;;;;;;4761812;30;20043;-89
2022/07/26 05:44:51;;;;;;;8.23;1.05;;;16.50;99.90;;;;;;4749099;30;20467;-89
2022/07/26 05:47:17;;;;;;;9.73;1.00;;;16.40;99.90;;;;;;4763186;30;20548;-90
2022/07/26 05:49:53;;;;;;;7.82;0.90;;;16.40;99.90;;;;;;4749270;30;20058;-90
2022/07/26 05:52:32;;;;;;;14.73;1.23;;;16.40;99.90;;;;;;4761594;30;20048;-91
2022/07/26 05:54:58;;;;;;;9.60;1.67;;;16.20;99.90;;;;;;4763651;30;20047;-91
2022/07/26 05:57:24;;;;;;;10.43;1.10;;;16.30;99.90;;;;;;4748504;30;20055;-92
2022/07/26 05:59:49;;;;;;;12.50;1.45;;;16.30;99.90;;;;;;4761533;30;20054;-91
2022/07/26 06:02:15;;;;;;;11.63;1.55;;;16.30;99.90;;;;;;4749911;30;20078;-92
2022/07/26 06:04:41;;;;;;;9.93;1.48;;;16.50;99.90;;;;;;4747979;30;20092;-92
2022/07/26 06:07:07;;;;;;;8.88;1.00;;;16.50;99.90;;;;;;4761894;30;20073;-90
2022/07/26 06:09:33;;;;;;;9.45;1.42;;;16.50;99.90;;;;;;4750314;30;20051;-91
2022/07/26 06:11:58;;;;;;;12.85;1.30;;;16.60;99.90;;;;;;4762475;30;20054;-91
2022/07/26 06:14:24;;;;;;;7.75;1.00;;;16.80;99.90;;;;;;4749099;30;20416;-92
2022/07/26 06:16:50;;;;;;;8.60;1.17;;;16.80;99.90;;;;;;4762260;30;20138;-90
2022/07/26 06:19:16;;;;;;;7.65;1.15;;;16.90;99.90;;;;;;4737899;30;20448;-89
2022/07/26 06:21:44;;;;;;;6.13;0.95;;;16.90;99.90;;;;;;4753671;30;20512;-91
2022/07/26 06:24:10;;;;;;;8.05;1.08;;;17.10;99.90;;;;;;4754315;30;20044;-91
2022/07/26 06:26:36;;;;;;;9.85;0.85;;;17.20;99.90;;;;;;4739899;30;20551;-90
2022/07/26 06:29:02;;;;;;;10.23;1.00;;;17.30;99.90;;;;;;4738268;30;20048;-84
2022/07/26 06:31:27;;;;;;;7.35;1.25;;;17.40;99.90;;;;;;4735654;30;20548;-84
2022/07/26 06:33:53;;;;;;;8.43;1.42;;;17.40;99.90;;;;;;4749973;30;20091;-84
2022/07/26 06:36:19;;;;;;;11.60;1.17;;;17.40;99.90;;;;;;4737777;30;20135;-84
2022/07/26 06:38:45;;;;;;;7.30;0.80;;;17.40;99.90;;;;;;4762600;30;20047;-84
2022/07/26 06:41:10;;;;;;;9.27;1.13;;;17.40;99.90;;;;;;4767724;30;20036;-84
2022/07/26 06:43:36;;;;;;;9.38;0.95;;;17.30;99.90;;;;;;4768295;30;20420;-83
2022/07/26 06:46:02;;;;;;;8.75;1.08;;;17.20;99.90;;;;;;4768189;30;20107;-85
2022/07/26 06:48:27;;;;;;;8.93;1.10;;;17.20;99.90;;;;;;4752255;30;20054;-85
2022/07/26 06:50:53;;;;;;;8.77;0.80;;;17.20;99.90;;;;;;4754270;30;20062;-84
2022/07/26 06:53:19;;;;;;;6.13;0.70;;;17.20;99.90;;;;;;4767637;30;20066;-85
2022/07/26 06:55:45;;;;;;;9.23;0.95;;;17.20;99.90;;;;;;4753760;30;20074;-84
2022/07/26 06:58:11;;;;;;;8.10;0.95;;;17.20;99.90;;;;;;4768152;30;20492;-83
2022/07/26 07:00:36;;;;;;;5.25;0.63;;;17.30;99.90;;;;;;4751013;30;20043;-83
2022/07/26 07:03:02;;;;;;;8.07;0.90;;;17.50;99.90;;;;;;4741146;30;20062;-84
2022/07/26 07:05:28;;;;;;;5.07;0.52;;;17.60;99.90;;;;;;4759574;30;20155;-85
2022/07/26 07:07:54;;;;;;;8.20;0.77;;;17.60;99.90;;;;;;4757062;30;20044;-84
2022/07/26 07:10:19;;;;;;;7.72;0.65;;;17.70;99.90;;;;;;4758864;30;20062;-82
2022/07/26 07:12:45;;;;;;;7.63;0.73;;;17.70;99.90;;;;;;4750282;30;20545;-82
2022/07/26 07:15:11;;;;;;;7.47;0.93;;;17.70;99.90;;;;;;4763847;30;20063;-82
2022/07/26 07:17:37;;;;;;;6.35;0.80;;;17.70;99.90;;;;;;4751113;30;20048;-84
2022/07/26 07:20:04;;;;;;;8.35;0.95;;;17.70;99.90;;;;;;4738627;30;20063;-90
2022/07/26 07:22:30;;;;;;;7.72;1.05;;;17.70;99.90;;;;;;4737473;30;20128;-91
2022/07/26 07:24:56;;;;;;;6.28;0.68;;;17.60;99.90;;;;;;4737550;30;20477;-92
2022/07/26 07:27:22;;;;;;;6.35;1.00;;;17.70;99.90;;;;;;4737371;30;20538;-92
2022/07/26 07:29:48;;;;;;;12.38;1.20;;;17.70;99.90;;;;;;4736503;30;20493;-90
2022/07/26 07:32:14;;;;;;;5.82;0.80;;;17.80;99.90;;;;;;4736709;30;20131;-91
2022/07/26 07:34:39;;;;;;;5.82;0.68;;;18.10;99.90;;;;;;4737285;30;20090;-91
2022/07/26 07:37:05;;;;;;;8.20;0.95;;;18.30;99.90;;;;;;4736608;30;20527;-90
2022/07/26 07:39:31;;;;;;;8.60;1.10;;;18.40;99.90;;;;;;4737263;30;20487;-91
2022/07/26 07:41:57;;;;;;;7.32;1.20;;;18.50;99.90;;;;;;4736949;30;20268;-92
2022/07/26 07:44:23;;;;;;;10.02;1.25;;;18.50;99.90;;;;;;4736387;30;20060;-91
2022/07/26 07:46:48;;;;;;;8.60;1.75;;;18.30;99.90;;;;;;4736214;30;20091;-92
2022/07/26 07:49:14;;;;;;;7.88;1.00;;;18.40;99.90;;;;;;4736944;30;20440;-93
2022/07/26 07:51:40;;;;;;;8.75;1.15;;;18.20;99.90;;;;;;4736453;30;20058;-91
2022/07/26 07:54:07;;;;;;;5.82;1.00;;;18.10;99.90;;;;;;4736478;30;20059;-91
2022/07/26 07:56:33;;;;;;;12.00;1.35;;;18.00;99.90;;;;;;4735537;30;20124;-92
2022/07/26 07:58:59;;;;;;;10.20;1.45;;;18.00;99.90;;;;;;4736775;30;20064;-92
2022/07/26 08:01:24;;;;;;;11.70;1.42;;;18.00;99.90;;;;;;4736100;30;20113;-92
2022/07/26 08:03:50;;;;;;;5.55;1.15;;;18.00;99.90;;;;;;4743410;30;20606;-92
2022/07/26 08:06:16;;;;;;;9.05;1.10;;;18.00;99.90;;;;;;4765819;30;20044;-92
2022/07/26 08:08:42;;;;;;;8.95;1.02;;;18.00;99.90;;;;;;4736581;30;20052;-92
2022/07/26 08:11:13;;;;;;;5.40;0.98;;;18.00;99.90;;;;;;4736231;30;20063;-93
2022/07/26 08:13:42;;;;;;;6.80;0.90;;;18.00;99.90;;;;;;4736786;30;20090;-92
2022/07/26 08:16:08;;;;;;;8.25;0.85;;;18.10;99.90;;;;;;4735877;30;20059;-92
2022/07/26 08:18:34;;;;;;;11.55;0.88;;;18.10;99.90;;;;;;4735667;30;20085;-93
2022/07/26 08:20:59;;;;;;;6.75;0.70;;;18.20;99.90;;;;;;4736622;30;20053;-94
2022/07/26 08:23:25;;;;;;;7.78;0.90;;;18.30;99.90;;;;;;4735603;30;20099;-93
2022/07/26 08:25:51;;;;;;;5.00;0.90;;;18.40;99.90;;;;;;4736079;30;20490;-92
2022/07/26 08:28:17;;;;;;;13.77;1.70;;;18.50;99.90;;;;;;4735993;30;20062;-93
2022/07/26 08:30:43;;;;;;;9.95;1.42;;;18.60;99.90;;;;;;4735914;30;20401;-92
2022/07/26 08:33:08;;;;;;;8.35;0.95;;;18.70;99.90;;;;;;4735555;30;20061;-93
2022/07/26 08:35:37;;;;;;;8.02;1.15;;;18.80;99.90;;;;;;4743568;30;20544;-93
2022/07/26 08:38:03;;;;;;;7.78;0.95;;;18.50;99.90;;;;;;4768830;30;20051;-92
2022/07/26 08:40:29;;;;;;;9.07;1.30;;;18.80;99.90;;;;;;4767308;30;20545;-93
2022/07/26 08:42:55;;;;;;;14.23;1.50;;;18.90;99.90;;;;;;4768616;30;20057;-93
2022/07/26 08:45:23;;;;;;;6.90;1.00;;;18.90;99.90;;;;;;4768886;30;20051;-92
2022/07/26 08:47:49;;;;;;;8.40;1.52;;;18.80;99.90;;;;;;4768400;30;20143;-92
2022/07/26 08:50:16;;;;;;;10.98;1.70;;;18.50;99.90;;;;;;4768709;30;20455;-92
2022/07/26 08:52:42;;;;;;;13.45;1.40;;;18.40;99.90;;;;;;4767814;30;20376;-91
2022/07/26 08:55:09;;;;;;;10.70;1.83;;;18.30;99.90;;;;;;4768293;30;20090;-92
2022/07/26 08:57:35;;;;;;;7.25;1.10;;;18.20;99.90;;;;;;4768058;30;20058;-92
2022/07/26 09:00:23;;;;;;;10.85;1.50;;;18.20;99.90;;;;;;4767631;30;20419;-92
2022/07/26 09:02:51;;;;;;;6.60;1.17;;;18.30;99.90;;;;;;4768274;30;20590;-93
2022/07/26 09:05:19;;;;;;;8.00;1.42;;;18.30;99.90;;;;;;4767998;30;20055;-92
2022/07/26 09:07:46;;;;;;;11.23;1.60;;;18.30;99.90;;;;;;4767782;30;20565;-92
2022/07/26 09:10:15;;;;;;;10.15;2.08;;;18.20;99.90;;;;;;4767771;30;20511;-92
2022/07/26 09:12:42;;;;;;;13.38;1.83;;;18.10;99.90;;;;;;4768276;30;20058;-92
2022/07/26 09:15:22;;;;;;;11.30;1.52;;;18.10;99.90;;;;;;4767125;30;20043;-92
2022/07/26 09:17:50;;;;;;;14.23;1.70;;;18.10;99.90;;;;;;4767764;30;20128;-92
2022/07/26 09:20:20;;;;;;;11.55;1.70;;;18.10;99.90;;;;;;4767805;30;20051;-92
2022/07/26 09:23:05;;;;;;;14.50;2.65;;;18.20;99.90;;;;;;4767367;30;20393;-92
2022/07/26 09:25:34;;;;;;;10.40;1.67;;;18.20;99.90;;;;;;4764620;30;20115;-93
2022/07/26 09:28:01;;;;;;;15.77;1.67;;;18.30;99.90;;;;;;4750023;30;20079;-92
2022/07/26 09:30:29;;;;;;;7.90;1.63;;;18.30;99.90;;;;;;4749708;30;20047;-93
2022/07/26 09:32:59;;;;;;;15.27;1.92;;;18.30;99.90;;;;;;4750440;30;20052;-92
2022/07/26 09:35:26;;;;;;;13.18;1.80;;;18.50;99.90;;;;;;4749029;30;20052;-92
2022/07/26 09:37:51;;;;;;;13.10;1.95;;;18.60;99.90;;;;;;4750471;30;20059;-93
2022/07/26 09:40:18;;;;;;;13.52;2.35;;;18.50;99.90;;;;;;4750170;30;20055;-93
2022/07/26 09:43:02;;;;;;;19.75;2.60;;;18.40;99.90;;;;;;4749830;30;20055;-93
2022/07/26 09:45:30;;;;;;;11.65;2.25;;;18.30;99.90;;;;;;4750199;30;20058;-93
2022/07/26 09:47:56;;;;;;;14.38;2.25;;;18.30;99.90;;;;;;4751574;30;20134;-93
2022/07/26 09:50:28;;;;;;;17.67;2.67;;;18.30;99.90;;;;;;4751209;30;20051;-93
2022/07/26 09:53:10;;;;;;;19.90;2.65;;;18.20;99.90;;;;;;4751963;30;20150;-90
2022/07/26 09:55:43;;;;;;;17.95;2.38;;;18.20;99.90;;;;;;4750785;30;20139;-93
2022/07/26 09:58:12;;;;;;;;;;;18.30;99.90;;;;;;4751418;30;20130;-92
2022/07/26 10:00:38;;;;;;;19.65;2.42;;;18.30;99.90;;;;;;4751048;30;20444;-92
2022/07/26 10:03:05;;;;;;;15.75;2.25;;;18.50;99.90;;;;;;4750704;30;20052;-90
2022/07/26 10:05:32;;;;;;;17.45;2.60;;;18.60;99.90;;;;;;4750895;30;20051;-91
2022/07/26 10:07:59;;;;;;;15.35;2.25;;;18.70;99.90;;;;;;4752052;30;20051;-93
2022/07/26 10:10:30;;;;;;;12.15;1.92;;;18.80;99.90;;;;;;4742379;30;20043;-92
2022/07/26 10:12:57;;;;;;;13.38;1.90;;;18.80;99.90;;;;;;4756524;30;20427;-92
2022/07/26 10:15:41;;;;;;;14.30;2.13;;;18.90;99.90;;;;;;4748654;30;20039;-94
2022/07/26 10:18:09;;;;;;;20.85;2.95;;;19.10;99.90;;;;;;4760195;30;20335;-92
2022/07/26 10:20:41;;;;;;;13.63;1.83;;;19.10;99.90;;;;;;4765153;30;20108;-93
2022/07/26 10:23:35;;;;;;;14.38;1.80;;;19.20;99.90;;;;;;4763777;30;20125;-92
2022/07/26 10:26:03;;;;;;;12.45;2.28;;;19.40;99.90;;;;;;4747930;30;20054;-92
2022/07/26 10:28:30;;;;;;;11.95;2.00;;;19.50;99.90;;;;;;4764540;30;20047;-83
2022/07/26 10:31:28;;;;;;;9.23;1.88;;;19.70;99.90;;;;;;4764649;30;20079;-83
2022/07/26 10:33:55;;;;;;;11.55;1.60;;;19.80;99.90;;;;;;4760459;30;20480;-83
2022/07/26 10:36:25;;;;;;;11.90;1.85;;;19.80;99.90;;;;;;4748598;30;20059;-83
2022/07/26 10:39:06;;;;;;;8.18;1.40;;;19.90;99.90;;;;;;4768076;30;20389;-85
2022/07/26 10:41:38;;;;;;;11.45;1.90;;;20.20;99.90;;;;;;4768084;30;20063;-84
2022/07/26 10:44:13;;;;;;;12.93;1.42;;;20.30;99.90;;;;;;4768745;30;20412;-84
2022/07/26 10:46:57;;;;;;;10.13;2.05;;;20.30;99.90;;;;;;4767262;30;20288;-83
2022/07/26 10:49:31;;;;;;;18.08;2.15;;;20.30;99.90;;;;;;4768138;30;20674;-83
2022/07/26 10:52:18;;;;;;;11.52;1.73;;;20.30;99.90;;;;;;4767642;30;20055;-83
2022/07/26 10:54:56;;;;;;;18.13;1.80;;;20.30;99.90;;;;;;4768456;30;20059;-84
2022/07/26 10:57:24;;;;;;;9.50;1.58;;;20.30;99.90;;;;;;4767565;30;20116;-84
2022/07/26 10:59:50;;;;;;;10.15;1.77;;;20.30;99.90;;;;;;4768026;30;20059;-83
2022/07/26 11:02:19;;;;;;;11.82;1.50;;;20.40;99.90;;;;;;4766789;30;20102;-82
2022/07/26 11:04:45;;;;;;;9.35;1.55;;;20.40;99.90;;;;;;4768756;30;20058;-83
2022/07/26 11:07:12;;;;;;;10.65;1.42;;;20.50;99.90;;;;;;4767350;30;20126;-83
2022/07/26 11:09:38;;;;;;;13.38;1.33;;;20.50;99.90;;;;;;4768149;30;20059;-82
2022/07/26 11:12:16;;;;;;;10.02;1.65;;;20.60;99.90;;;;;;4767998;30;20225;-83
2022/07/26 11:14:42;;;;;;;9.65;1.55;;;20.60;99.90;;;;;;4767552;30;20054;-82
2022/07/26 11:17:07;;;;;;;8.77;1.52;;;20.50;99.90;;;;;;4766542;30;20051;-82
2022/07/26 11:19:38;;;;;;;6.78;1.20;;;20.50;99.90;;;;;;4767983;30;20137;-82
2022/07/26 11:22:04;;;;;;;7.55;0.90;;;20.70;99.90;;;;;;4766697;30;20512;-82
2022/07/26 11:24:30;;;;;;;8.77;0.88;;;20.80;99.90;;;;;;4767866;30;20044;-82
2022/07/26 11:27:02;;;;;;;5.43;0.90;;;20.80;99.90;;;;;;4768062;30;20051;-83
2022/07/26 11:29:31;;;;;;;3.63;0.88;;;20.70;99.90;;;;;;4767252;30;20428;-83
2022/07/26 11:31:57;;;;;;;6.85;1.02;;;20.70;99.90;;;;;;4766192;30;20054;-83
2022/07/26 11:34:24;;;;;;;9.20;1.33;;;20.60;99.90;;;;;;4767392;30;20468;-83
2022/07/26 11:36:52;;;;;;;10.77;1.40;;;20.70;99.90;;;;;;4767186;30;20088;-84
2022/07/26 11:39:21;;;;;;;8.40;1.05;;;20.70;99.90;;;;;;4767574;30;20108;-83
2022/07/26 11:41:47;;;;;;;6.55;1.00;;;20.60;99.90;;;;;;4767063;30;20051;-83
2022/07/26 11:44:19;;;;;;;6.57;0.80;;;20.50;99.90;;;;;;4767234;30;20058;-83
2022/07/26 11:46:46;;;;;;;7.68;0.95;;;20.50;99.90;;;;;;4767273;30;20055;-84
2022/07/26 11:49:14;;;;;;;7.75;0.95;;;20.60;99.90;;;;;;4766569;30;20047;-84
2022/07/26 11:51:48;;;;;;;6.88;1.00;;;20.80;99.90;;;;;;4767146;30;20066;-83
2022/07/26 11:54:13;;;;;;;7.05;1.10;;;21.00;99.90;;;;;;4767696;30;20058;-83
2022/07/26 11:56:49;;;;;;;10.88;1.00;;;21.00;99.90;;;;;;4766122;30;20565;-83
2022/07/26 11:59:15;;;;;;;6.90;1.10;;;21.30;99.90;;;;;;4767228;30;20493;-83
2022/07/26 12:01:44;;;;;;;7.55;1.00;;;21.40;99.90;;;;;;4765861;30;20051;-83
2022/07/26 12:04:18;;;;;;;7.55;1.00;;;21.20;99.90;;;;;;4766888;30;20062;-83
2022/07/26 12:06:44;;;;;;;8.43;0.98;;;21.30;99.90;;;;;;4766498;30;20134;-83
2022/07/26 12:09:09;;;;;;;7.03;1.00;;;21.40;99.90;;;;;;4767321;30;20150;-83
2022/07/26 12:11:38;;;;;;;9.23;1.20;;;21.30;99.90;;;;;;4766112;30;20517;-83
2022/07/26 12:14:04;;;;;;;6.75;1.02;;;21.20;99.90;;;;;;4766854;30;20504;-83
2022/07/26 12:16:43;;;;;;;4.07;0.77;;;21.20;99.90;;;;;;4766368;30;20052;-83
2022/07/26 12:19:23;;;;;;;8.70;1.20;;;21.30;99.90;;;;;;4767146;30;20061;-83
2022/07/26 12:21:58;;;;;;;9.95;1.30;;;21.30;99.90;;;;;;4767192;30;20047;-84
2022/07/26 12:24:44;;;;;;;8.88;1.02;;;21.20;99.90;;;;;;4766317;30;20058;-85
2022/07/26 12:27:14;;;;;;;8.77;0.90;;;21.10;99.90;;;;;;4766563;30;20050;-83
2022/07/26 12:29:42;;;;;;;10.65;1.52;;;20.90;99.90;;;;;;4766463;30;20074;-82
2022/07/26 12:32:11;;;;;;;10.15;1.40;;;20.80;99.90;;;;;;4765154;30;20539;-83
2022/07/26 12:34:38;;;;;;;8.80;0.90;;;20.70;99.90;;;;;;4766447;30;20059;-82
2022/07/26 12:37:10;;;;;;;9.65;1.25;;;20.70;99.90;;;;;;4766568;30;20047;-84
2022/07/26 12:39:36;;;;;;;6.60;1.00;;;20.80;99.90;;;;;;4765779;30;20055;-83
2022/07/26 12:42:20;;;;;;;11.68;1.58;;;20.90;99.90;;;;;;4766689;29;20492;-83
2022/07/26 12:44:46;;;;;;;8.38;1.50;;;20.90;99.90;;;;;;4767054;30;20104;-83
2022/07/26 12:47:12;;;;;;;9.48;1.45;;;20.70;99.90;;;;;;4764794;30;20043;-83
2022/07/26 12:49:37;;;;;;;7.70;1.30;;;20.80;99.90;;;;;;4766813;30;20047;-83
2022/07/26 12:52:03;;;;;;;11.15;1.27;;;20.80;99.90;;;;;;4750851;30;20137;-83
2022/07/26 12:54:29;;;;;;;7.72;1.10;;;20.70;99.90;;;;;;4766171;30;20073;-84